Time;durP1;ratioP1;P1;durP2;ratioP2;P2;SDS_P1;SDS_P2;PMS_P1;PMS_P2;Temp;Humidity;BMP_temperature;BMP_pressure;BME280_temperature;BME280_humidity;BME280_pressure;Samples;Min_cycle;Max_cycle;Signal;HPM_P1;HPM_P2
2023/08/26 14:34:06;;;;;;;3.15;2.20;;;;;;;;;;5075593;28;20755;-58
2023/08/26 14:36:33;;;;;;;3.05;2.10;;;;;;;;;;5073264;28;20045;-56
2023/08/26 14:39:01;;;;;;;3.88;1.90;;;;;;;;;;5066728;28;20067;-59
2023/08/26 14:41:28;;;;;;;1.35;1.25;;;;;;;;;;5057966;28;20665;-58
2023/08/26 14:43:54;;;;;;;4.15;1.30;;;;;;;;;;5051464;28;20326;-59
2023/08/26 14:46:21;;;;;;;2.55;1.50;;;;;;;;;;5040180;28;20494;-58
2023/08/26 14:48:47;;;;;;;1.48;1.38;;;;;;;;;;5073644;28;20291;-55
2023/08/26 14:51:14;;;;;;;2.80;1.23;;;;;;;;;;5056267;28;20509;-58
2023/08/26 14:53:40;;;;;;;2.20;1.20;;;;;;;;;;5056013;28;20053;-57
2023/08/26 14:56:06;;;;;;;2.05;1.33;;;;;;;;;;5065499;28;20517;-57
2023/08/26 14:58:33;;;;;;;1.52;1.13;;;;;;;;;;5070678;28;20060;-58
2023/08/26 15:00:59;;;;;;;1.20;1.10;;;;;;;;;;5070911;28;20578;-57
2023/08/26 15:03:26;;;;;;;1.73;1.20;;;;;;;;;;5068625;28;20053;-60
2023/08/26 15:06:03;;;;;;;1.48;1.10;;;;;;;;;;5056624;28;20139;-56
2023/08/26 15:08:31;;;;;;;1.48;1.30;;;;;;;;;;5057615;28;20055;-58
2023/08/26 15:10:57;;;;;;;1.00;1.00;;;;;;;;;;5061293;28;20053;-57
2023/08/26 15:13:24;;;;;;;1.30;1.10;;;;;;;;;;5069680;28;20184;-58
2023/08/26 15:15:51;;;;;;;1.23;1.13;;;;;;;;;;5058100;28;20149;-58
2023/08/26 15:18:18;;;;;;;2.47;1.25;;;;;;;;;;5056929;28;20053;-57
2023/08/26 15:20:46;;;;;;;1.48;1.20;;;;;;;;;;5058363;28;20057;-57
2023/08/26 15:23:13;;;;;;;1.60;1.30;;;;;;;;;;5054342;28;20049;-57
2023/08/26 15:25:44;;;;;;;2.55;1.48;;;;;;;;;;5059506;28;20053;-57
2023/08/26 15:28:11;;;;;;;3.25;1.27;;;;;;;;;;5056624;28;20148;-58
2023/08/26 15:30:37;;;;;;;1.73;1.42;;;;;;;;;;5056850;28;20045;-56
2023/08/26 15:33:04;;;;;;;1.95;1.40;;;;;;;;;;5062717;28;20061;-56
2023/08/26 15:35:31;;;;;;;1.52;1.40;;;;;;;;;;5058653;28;20111;-58
2023/08/26 15:37:58;;;;;;;3.42;1.65;;;;;;;;;;5055119;28;20693;-57
2023/08/26 15:40:25;;;;;;;2.65;1.60;;;;;;;;;;5057773;28;20088;-58
2023/08/26 15:42:53;;;;;;;3.00;1.85;;;;;;;;;;5064745;28;20211;-58
2023/08/26 15:45:20;;;;;;;1.38;1.27;;;;;;;;;;5050317;28;20061;-59
2023/08/26 15:47:46;;;;;;;5.75;2.10;;;;;;;;;;5031060;28;20143;-57
2023/08/26 15:50:13;;;;;;;1.75;1.65;;;;;;;;;;5044812;28;20050;-59
2023/08/26 15:52:39;;;;;;;5.57;2.00;;;;;;;;;;5038568;28;20073;-59
2023/08/26 15:55:06;;;;;;;2.20;1.63;;;;;;;;;;5050031;28;20136;-59
2023/08/26 15:57:32;;;;;;;3.20;1.70;;;;;;;;;;5042716;28;20060;-59
2023/08/26 15:59:59;;;;;;;2.97;1.75;;;;;;;;;;5042457;28;20446;-63
2023/08/26 16:02:25;;;;;;;3.40;1.65;;;;;;;;;;5047826;28;20053;-62
2023/08/26 16:04:51;;;;;;;4.60;1.90;;;;;;;;;;5043154;28;20053;-60
2023/08/26 16:07:18;;;;;;;6.43;1.98;;;;;;;;;;5055460;28;20176;-62
2023/08/26 16:09:44;;;;;;;1.85;1.40;;;;;;;;;;5042038;28;20132;-60
2023/08/26 16:12:16;;;;;;;5.18;1.85;;;;;;;;;;5050001;28;20057;-58
2023/08/26 16:14:43;;;;;;;4.53;2.00;;;;;;;;;;5046857;28;20060;-61
2023/08/26 16:17:09;;;;;;;4.00;1.85;;;;;;;;;;5040402;28;20052;-60
2023/08/26 16:19:36;;;;;;;4.00;2.10;;;;;;;;;;5041322;28;20049;-58
2023/08/26 16:22:02;;;;;;;2.13;1.52;;;;;;;;;;5043661;28;20069;-62
2023/08/26 16:24:29;;;;;;;3.75;1.60;;;;;;;;;;5051530;28;20057;-61
2023/08/26 16:26:55;;;;;;;1.98;1.77;;;;;;;;;;5047228;28;20084;-57
2023/08/26 16:29:22;;;;;;;4.10;1.90;;;;;;;;;;5043442;28;20543;-60
2023/08/26 16:31:48;;;;;;;3.15;1.90;;;;;;;;;;5046611;28;20059;-61
2023/08/26 16:34:14;;;;;;;2.08;1.60;;;;;;;;;;5042100;28;20135;-60
2023/08/26 16:36:41;;;;;;;3.05;1.45;;;;;;;;;;5051050;28;20138;-61
2023/08/26 16:39:07;;;;;;;2.78;1.63;;;;;;;;;;5046348;28;20494;-60
2023/08/26 16:41:34;;;;;;;4.55;2.20;;;;;;;;;;5043579;28;20049;-57
2023/08/26 16:44:00;;;;;;;2.13;1.92;;;;;;;;;;5044559;28;20578;-63
2023/08/26 16:46:27;;;;;;;2.70;1.80;;;;;;;;;;5049517;28;20068;-61
2023/08/26 16:48:53;;;;;;;2.50;2.10;;;;;;;;;;5033421;28;20054;-61
2023/08/26 16:51:19;;;;;;;5.03;1.73;;;;;;;;;;5046263;28;20053;-60
2023/08/26 16:53:46;;;;;;;3.78;1.88;;;;;;;;;;5035409;28;20060;-61
2023/08/26 16:56:12;;;;;;;4.53;1.90;;;;;;;;;;5049528;28;20053;-62
2023/08/26 16:58:39;;;;;;;4.10;1.80;;;;;;;;;;5045373;28;20872;-62
2023/08/26 17:01:05;;;;;;;3.67;2.10;;;;;;;;;;5042676;28;20504;-63
2023/08/26 17:03:32;;;;;;;4.75;1.52;;;;;;;;;;5043282;28;20538;-64
2023/08/26 17:05:58;;;;;;;2.17;1.02;;;;;;;;;;5043437;28;20623;-58
2023/08/26 17:08:25;;;;;;;2.83;0.90;;;;;;;;;;5043359;28;20560;-60
2023/08/26 17:10:54;;;;;;;2.50;0.73;;;;;;;;;;5031956;28;20343;-62
2023/08/26 17:13:23;;;;;;;3.78;1.08;;;;;;;;;;5042475;28;20621;-61
2023/08/26 17:15:50;;;;;;;2.35;1.00;;;;;;;;;;5043726;28;20053;-62
2023/08/26 17:18:16;;;;;;;3.75;1.15;;;;;;;;;;5042673;28;20053;-64
2023/08/26 17:20:44;;;;;;;1.33;1.27;;;;;;;;;;5032350;28;20503;-58
2023/08/26 17:23:11;;;;;;;3.15;1.23;;;;;;;;;;5033670;28;20058;-61
2023/08/26 17:25:37;;;;;;;1.63;1.00;;;;;;;;;;5042626;28;20531;-60
2023/08/26 17:28:04;;;;;;;5.75;1.20;;;;;;;;;;5041012;28;20050;-61
2023/08/26 17:30:34;;;;;;;4.22;1.42;;;;;;;;;;5042803;28;20992;-60
2023/08/26 17:33:00;;;;;;;1.42;1.10;;;;;;;;;;5038849;28;20054;-61
2023/08/26 17:35:34;;;;;;;2.10;1.75;;;;;;;;;;5049324;28;20045;-63
2023/08/26 17:38:02;;;;;;;2.13;1.30;;;;;;;;;;5042682;28;20053;-58
2023/08/26 17:40:29;;;;;;;1.10;1.00;;;;;;;;;;5042729;28;20053;-59
2023/08/26 17:42:55;;;;;;;1.73;1.40;;;;;;;;;;5050076;28;20053;-57
2023/08/26 17:45:22;;;;;;;2.13;1.48;;;;;;;;;;5058592;28;20060;-58
2023/08/26 17:47:49;;;;;;;4.32;1.50;;;;;;;;;;5042396;28;20144;-61
2023/08/26 17:50:15;;;;;;;3.05;1.42;;;;;;;;;;5043239;28;20053;-59
2023/08/26 17:52:42;;;;;;;2.80;1.50;;;;;;;;;;5045848;28;20106;-58
2023/08/26 17:55:09;;;;;;;1.40;1.30;;;;;;;;;;5034647;28;20085;-58
2023/08/26 17:57:36;;;;;;;2.50;1.30;;;;;;;;;;5041033;28;20054;-61
2023/08/26 18:00:05;;;;;;;3.30;1.80;;;;;;;;;;5041486;28;20099;-62
2023/08/26 18:02:32;;;;;;;2.90;1.70;;;;;;;;;;5039228;28;20144;-58
2023/08/26 18:04:58;;;;;;;4.68;2.22;;;;;;;;;;5041972;28;20076;-56
2023/08/26 18:07:25;;;;;;;2.75;2.28;;;;;;;;;;5044360;28;20120;-61
2023/08/26 18:09:51;;;;;;;4.55;2.67;;;;;;;;;;5043243;28;20614;-58
2023/08/26 18:12:18;;;;;;;2.88;2.20;;;;;;;;;;5041576;28;20534;-56
2023/08/26 18:14:44;;;;;;;3.47;2.08;;;;;;;;;;5038421;28;20115;-60
2023/08/26 18:17:11;;;;;;;3.90;1.98;;;;;;;;;;5038717;28;20053;-58
2023/08/26 18:19:37;;;;;;;2.15;1.95;;;;;;;;;;5042632;28;20049;-57
2023/08/26 18:22:03;;;;;;;3.80;2.08;;;;;;;;;;5041382;28;20079;-54
2023/08/26 18:24:30;;;;;;;3.33;2.20;;;;;;;;;;5036237;28;20108;-57
2023/08/26 18:26:59;;;;;;;3.35;2.30;;;;;;;;;;5034918;28;20091;-57
2023/08/26 18:29:34;;;;;;;5.80;3.67;;;;;;;;;;5043574;28;20049;-59
2023/08/26 18:32:01;;;;;;;9.30;5.10;;;;;;;;;;5057790;28;20516;-58
2023/08/26 18:34:28;;;;;;;6.88;3.88;;;;;;;;;;5046690;28;20136;-58
2023/08/26 18:36:54;;;;;;;7.88;4.47;;;;;;;;;;5041568;28;20547;-59
2023/08/26 18:39:21;;;;;;;5.47;3.38;;;;;;;;;;5046737;28;20231;-59
2023/08/26 18:41:47;;;;;;;5.30;3.13;;;;;;;;;;5049511;28;20520;-58
2023/08/26 18:44:14;;;;;;;5.03;2.80;;;;;;;;;;5043621;28;20057;-58
2023/08/26 18:46:40;;;;;;;5.13;3.25;;;;;;;;;;5041114;28;20064;-59
2023/08/26 18:49:06;;;;;;;5.97;3.10;;;;;;;;;;5040235;28;20060;-58
2023/08/26 18:51:33;;;;;;;3.85;2.25;;;;;;;;;;5048656;28;20107;-53
2023/08/26 18:53:59;;;;;;;3.90;2.95;;;;;;;;;;5033580;28;20134;-56
2023/08/26 18:56:26;;;;;;;4.07;3.00;;;;;;;;;;5034259;28;20136;-56
2023/08/26 18:58:52;;;;;;;4.57;3.25;;;;;;;;;;5040556;28;20582;-56
2023/08/26 19:01:19;;;;;;;5.15;2.47;;;;;;;;;;5031461;28;20050;-58
2023/08/26 19:03:45;;;;;;;9.20;2.90;;;;;;;;;;5040700;28;20065;-58
2023/08/26 19:06:12;;;;;;;3.75;2.60;;;;;;;;;;5041089;28;20053;-57
2023/08/26 19:08:38;;;;;;;4.57;2.47;;;;;;;;;;5045580;28;20056;-58
2023/08/26 19:11:05;;;;;;;3.15;2.40;;;;;;;;;;5058520;28;20150;-52
2023/08/26 19:13:31;;;;;;;3.83;2.47;;;;;;;;;;5039519;28;20068;-56
2023/08/26 19:15:57;;;;;;;5.78;2.58;;;;;;;;;;5039934;28;20148;-58
2023/08/26 19:18:24;;;;;;;3.50;2.42;;;;;;;;;;5031871;28;20538;-58
2023/08/26 19:20:51;;;;;;;4.45;3.03;;;;;;;;;;5044457;28;20903;-59
2023/08/26 19:23:17;;;;;;;5.03;2.95;;;;;;;;;;5044044;28;20095;-57
2023/08/26 19:25:47;;;;;;;4.63;2.40;;;;;;;;;;5044099;28;20440;-58
2023/08/26 19:28:14;;;;;;;5.25;2.50;;;;;;;;;;5036520;28;20595;-55
2023/08/26 19:30:42;;;;;;;2.63;2.22;;;;;;;;;;5048927;28;20137;-58
2023/08/26 19:33:09;;;;;;;5.60;3.22;;;;;;;;;;5052619;28;20058;-58
2023/08/26 19:35:36;;;;;;;3.90;2.42;;;;;;;;;;5045359;28;20578;-58
2023/08/26 19:38:03;;;;;;;3.72;2.65;;;;;;;;;;5043210;28;20522;-59
2023/08/26 19:40:30;;;;;;;2.65;2.45;;;;;;;;;;5048968;28;20050;-58
2023/08/26 19:42:57;;;;;;;3.72;3.05;;;;;;;;;;5028518;28;20504;-55
2023/08/26 19:45:25;;;;;;;4.45;2.80;;;;;;;;;;5042532;28;20053;-56
2023/08/26 19:47:51;;;;;;;4.43;3.15;;;;;;;;;;5043342;28;20516;-58
2023/08/26 19:50:18;;;;;;;4.55;3.50;;;;;;;;;;5042871;28;20221;-58
2023/08/26 19:52:45;;;;;;;6.95;3.40;;;;;;;;;;5035030;28;20563;-58
2023/08/26 19:55:12;;;;;;;3.13;2.92;;;;;;;;;;5059165;28;20515;-57
2023/08/26 19:57:41;;;;;;;4.93;3.42;;;;;;;;;;5039977;28;20057;-57
2023/08/26 20:00:08;;;;;;;6.45;3.88;;;;;;;;;;5036874;28;20173;-58
2023/08/26 20:02:35;;;;;;;3.60;3.30;;;;;;;;;;5035725;28;20915;-56
2023/08/26 20:05:01;;;;;;;4.82;3.85;;;;;;;;;;5054645;28;20081;-58
2023/08/26 20:07:28;;;;;;;6.63;4.13;;;;;;;;;;5042362;28;20053;-58
2023/08/26 20:09:55;;;;;;;5.55;4.05;;;;;;;;;;5026917;28;20654;-56
2023/08/26 20:12:22;;;;;;;4.47;3.97;;;;;;;;;;5029475;28;20626;-56
2023/08/26 20:14:49;;;;;;;5.95;4.63;;;;;;;;;;5033421;28;20101;-59
2023/08/26 20:17:16;;;;;;;5.10;4.38;;;;;;;;;;5028856;28;20154;-60
2023/08/26 20:19:42;;;;;;;9.95;4.60;;;;;;;;;;5030446;28;20700;-58
2023/08/26 20:22:09;;;;;;;5.00;4.40;;;;;;;;;;5033852;28;20125;-60
2023/08/26 20:24:36;;;;;;;4.57;4.18;;;;;;;;;;5030098;28;20557;-59
2023/08/26 20:27:03;;;;;;;4.93;4.40;;;;;;;;;;5030601;28;20508;-58
2023/08/26 20:29:30;;;;;;;6.65;4.35;;;;;;;;;;5040216;28;20054;-59
2023/08/26 20:31:59;;;;;;;5.28;4.18;;;;;;;;;;5034603;28;20081;-60
2023/08/26 20:34:25;;;;;;;8.73;4.80;;;;;;;;;;5034396;28;20054;-55
2023/08/26 20:36:53;;;;;;;8.73;4.85;;;;;;;;;;5028719;28;20112;-58
2023/08/26 20:39:19;;;;;;;6.07;5.35;;;;;;;;;;5037455;28;20605;-58
2023/08/26 20:41:46;;;;;;;5.55;5.00;;;;;;;;;;5029453;28;20097;-56
2023/08/26 20:44:12;;;;;;;5.07;4.57;;;;;;;;;;5037451;28;20140;-57
2023/08/26 20:46:38;;;;;;;4.78;4.35;;;;;;;;;;5040369;28;20140;-58
2023/08/26 20:49:05;;;;;;;6.38;4.85;;;;;;;;;;5048943;28;20053;-57
2023/08/26 20:51:31;;;;;;;7.10;4.75;;;;;;;;;;5037336;28;20144;-56
2023/08/26 20:53:58;;;;;;;6.55;4.97;;;;;;;;;;5040650;28;20049;-57
2023/08/26 20:56:25;;;;;;;5.32;4.65;;;;;;;;;;5041763;28;20707;-58
2023/08/26 20:58:53;;;;;;;9.35;5.45;;;;;;;;;;5039750;28;20053;-57
2023/08/26 21:01:19;;;;;;;5.13;4.30;;;;;;;;;;5042228;28;20074;-58
2023/08/26 21:03:45;;;;;;;7.47;4.63;;;;;;;;;;5037321;28;20060;-58
2023/08/26 21:06:12;;;;;;;6.75;4.50;;;;;;;;;;5041838;28;20398;-60
2023/08/26 21:08:40;;;;;;;5.45;4.88;;;;;;;;;;5038144;28;20532;-58
2023/08/26 21:11:06;;;;;;;5.07;4.35;;;;;;;;;;5040527;28;20057;-59
2023/08/26 21:13:34;;;;;;;5.53;4.55;;;;;;;;;;5041078;28;20140;-58
2023/08/26 21:16:00;;;;;;;7.63;5.15;;;;;;;;;;5037446;28;20097;-58
2023/08/26 21:18:28;;;;;;;5.93;5.30;;;;;;;;;;5039130;28;20504;-58
2023/08/26 21:20:56;;;;;;;5.78;5.10;;;;;;;;;;5037883;28;20129;-58
2023/08/26 21:23:22;;;;;;;6.15;4.53;;;;;;;;;;5035089;28;20060;-58
2023/08/26 21:25:49;;;;;;;6.72;4.72;;;;;;;;;;5036534;28;20104;-58
2023/08/26 21:28:16;;;;;;;5.50;4.95;;;;;;;;;;5038074;28;20053;-57
2023/08/26 21:30:42;;;;;;;5.72;4.60;;;;;;;;;;5038064;28;20206;-57
2023/08/26 21:33:09;;;;;;;9.15;4.72;;;;;;;;;;5038176;28;20061;-57
2023/08/26 21:35:35;;;;;;;5.90;4.80;;;;;;;;;;5036653;28;20488;-57
2023/08/26 21:38:02;;;;;;;5.55;4.85;;;;;;;;;;5044124;28;20550;-59
2023/08/26 21:40:28;;;;;;;6.85;4.85;;;;;;;;;;5052368;28;20050;-59
2023/08/26 21:42:57;;;;;;;6.93;5.18;;;;;;;;;;5021943;28;20053;-58
2023/08/26 21:45:24;;;;;;;7.68;4.43;;;;;;;;;;5040048;28;20524;-58
2023/08/26 21:47:50;;;;;;;5.43;4.88;;;;;;;;;;5042574;28;20049;-59
2023/08/26 21:50:17;;;;;;;6.93;4.20;;;;;;;;;;5039735;28;20566;-58
2023/08/26 21:52:43;;;;;;;6.22;4.35;;;;;;;;;;5027500;28;20334;-59
2023/08/26 21:55:10;;;;;;;10.32;4.95;;;;;;;;;;5026996;28;20136;-59
2023/08/26 21:57:36;;;;;;;8.88;4.53;;;;;;;;;;5035408;28;20496;-59
2023/08/26 22:00:05;;;;;;;4.82;4.30;;;;;;;;;;5040505;28;20077;-59
2023/08/26 22:02:32;;;;;;;8.48;5.22;;;;;;;;;;5041386;28;20085;-59
2023/08/26 22:04:58;;;;;;;4.88;4.38;;;;;;;;;;5042442;28;20504;-58
2023/08/26 22:07:25;;;;;;;5.95;4.70;;;;;;;;;;5047046;28;20050;-59
2023/08/26 22:09:52;;;;;;;5.95;4.68;;;;;;;;;;5040178;28;20172;-55
2023/08/26 22:12:19;;;;;;;6.90;5.00;;;;;;;;;;5029199;28;20054;-60
2023/08/26 22:14:45;;;;;;;6.85;4.70;;;;;;;;;;5042889;28;20063;-60
2023/08/26 22:17:12;;;;;;;4.80;4.35;;;;;;;;;;5043881;28;20444;-57
2023/08/26 22:19:38;;;;;;;6.90;4.80;;;;;;;;;;5041084;28;20050;-58
2023/08/26 22:22:05;;;;;;;5.10;4.40;;;;;;;;;;5041951;28;20057;-56
2023/08/26 22:24:31;;;;;;;7.70;4.75;;;;;;;;;;5042234;28;20053;-57
2023/08/26 22:26:58;;;;;;;7.20;4.97;;;;;;;;;;5031961;28;20054;-58
2023/08/26 22:29:24;;;;;;;5.05;4.53;;;;;;;;;;5017230;28;20108;-58
2023/08/26 22:31:51;;;;;;;9.07;5.03;;;;;;;;;;5027481;28;20531;-56
2023/08/26 22:34:17;;;;;;;7.00;5.57;;;;;;;;;;5038375;28;20057;-58
2023/08/26 22:36:44;;;;;;;7.10;5.00;;;;;;;;;;5041851;28;20061;-58
2023/08/26 22:39:10;;;;;;;5.20;4.70;;;;;;;;;;5039967;28;20057;-58
2023/08/26 22:41:39;;;;;;;5.53;4.95;;;;;;;;;;5043235;28;20527;-58
2023/08/26 22:44:06;;;;;;;6.45;4.50;;;;;;;;;;5041902;28;20061;-58
2023/08/26 22:46:32;;;;;;;5.63;4.93;;;;;;;;;;5031457;28;20053;-58
2023/08/26 22:49:00;;;;;;;5.55;4.43;;;;;;;;;;5044722;28;20060;-56
2023/08/26 22:51:26;;;;;;;6.05;4.82;;;;;;;;;;5030175;28;20625;-56
2023/08/26 22:53:52;;;;;;;6.05;5.45;;;;;;;;;;5031473;28;20111;-59
2023/08/26 22:56:19;;;;;;;6.20;4.85;;;;;;;;;;5049928;28;20094;-58
2023/08/26 22:58:45;;;;;;;5.57;5.07;;;;;;;;;;5042728;28;20554;-58
2023/08/26 23:01:12;;;;;;;5.70;5.20;;;;;;;;;;5031212;28;20091;-60
2023/08/26 23:03:38;;;;;;;6.25;4.82;;;;;;;;;;5033250;28;20057;-59
2023/08/26 23:06:05;;;;;;;12.27;5.03;;;;;;;;;;5039135;28;20641;-55
2023/08/26 23:08:32;;;;;;;9.25;5.10;;;;;;;;;;5042397;28;20052;-59
2023/08/26 23:10:59;;;;;;;6.70;5.38;;;;;;;;;;5031854;28;20509;-59
2023/08/26 23:13:25;;;;;;;5.65;5.05;;;;;;;;;;5025674;28;20145;-58
2023/08/26 23:15:51;;;;;;;7.07;6.15;;;;;;;;;;5047369;28;20147;-58
2023/08/26 23:18:18;;;;;;;7.25;5.38;;;;;;;;;;5027972;28;20050;-59
2023/08/26 23:20:46;;;;;;;12.55;5.30;;;;;;;;;;5030346;28;20583;-59
2023/08/26 23:23:13;;;;;;;7.00;5.32;;;;;;;;;;5048614;28;20080;-58
2023/08/26 23:25:40;;;;;;;7.63;5.13;;;;;;;;;;5043782;28;20232;-58
2023/08/26 23:28:06;;;;;;;8.93;5.00;;;;;;;;;;5044426;28;20053;-58
2023/08/26 23:30:33;;;;;;;6.07;5.18;;;;;;;;;;5036909;28;20530;-58
2023/08/26 23:33:01;;;;;;;5.88;5.22;;;;;;;;;;5027228;28;20058;-52
2023/08/26 23:35:28;;;;;;;6.38;5.22;;;;;;;;;;5031960;28;20475;-57
2023/08/26 23:37:54;;;;;;;5.97;5.38;;;;;;;;;;5044347;28;20663;-59
2023/08/26 23:40:21;;;;;;;6.30;5.20;;;;;;;;;;5042997;28;20058;-59
2023/08/26 23:42:47;;;;;;;8.18;5.40;;;;;;;;;;5039571;28;20505;-58
2023/08/26 23:45:14;;;;;;;6.75;5.22;;;;;;;;;;5038975;28;20413;-59
2023/08/26 23:47:40;;;;;;;7.38;5.57;;;;;;;;;;5028514;28;20058;-59
2023/08/26 23:50:07;;;;;;;6.28;5.68;;;;;;;;;;5044294;28;20575;-58
2023/08/26 23:52:33;;;;;;;5.63;5.13;;;;;;;;;;5035836;28;20485;-58
2023/08/26 23:55:00;;;;;;;11.43;5.07;;;;;;;;;;5047737;28;20439;-59
2023/08/26 23:57:26;;;;;;;7.90;6.40;;;;;;;;;;5029939;28;20520;-58
2023/08/26 23:59:53;;;;;;;7.28;5.78;;;;;;;;;;5046831;28;20172;-58
